Time;durP1;ratioP1;P1;durP2;ratioP2;P2;SDS_P1;SDS_P2;PMS_P1;PMS_P2;Temp;Humidity;BMP_temperature;BMP_pressure;BME280_temperature;BME280_humidity;BME280_pressure;Samples;Min_cycle;Max_cycle;Signal;HPM_P1;HPM_P2
2023/08/20 00:02:27;;;;;;;43.15;38.15;;;14.80;99.90;;;;;;4969125;28;20416;-80
2023/08/20 00:04:56;;;;;;;37.53;33.13;;;14.80;99.90;;;;;;4950892;28;20047;-79
2023/08/20 00:07:22;;;;;;;27.73;25.08;;;14.90;99.90;;;;;;4955213;28;20051;-79
2023/08/20 00:09:48;;;;;;;25.83;23.13;;;14.80;99.90;;;;;;4927586;28;20105;-79
2023/08/20 00:12:14;;;;;;;26.15;23.48;;;14.80;99.90;;;;;;4972092;28;20038;-79
2023/08/20 00:14:56;;;;;;;28.70;25.55;;;14.70;99.90;;;;;;4930661;28;20043;-79
2023/08/20 00:17:24;;;;;;;19.98;17.98;;;14.70;99.90;;;;;;4955905;28;20053;-79
2023/08/20 00:19:50;;;;;;;19.13;17.38;;;14.60;99.90;;;;;;4955691;28;20039;-79
2023/08/20 00:22:17;;;;;;;30.00;26.58;;;14.60;99.90;;;;;;4935410;28;20089;-79
2023/08/20 00:24:43;;;;;;;22.00;19.85;;;14.50;99.90;;;;;;4939425;28;20078;-79
2023/08/20 00:27:08;;;;;;;30.88;24.15;;;14.50;99.90;;;;;;4956003;28;20130;-79
2023/08/20 00:29:34;;;;;;;23.85;21.55;;;14.40;99.90;;;;;;4956144;28;20133;-79
2023/08/20 00:32:00;;;;;;;29.25;26.33;;;14.40;99.90;;;;;;4955398;28;20109;-79
2023/08/20 00:34:25;;;;;;;28.05;25.08;;;14.40;99.90;;;;;;4938843;28;20125;-78
2023/08/20 00:36:54;;;;;;;24.88;22.33;;;14.40;99.90;;;;;;4967832;28;20270;-79
2023/08/20 00:39:20;;;;;;;27.25;24.48;;;14.30;99.90;;;;;;4975425;28;20398;-79
2023/08/20 00:41:45;;;;;;;43.45;34.20;;;14.30;99.90;;;;;;4962225;28;20046;-78
2023/08/20 00:44:11;;;;;;;43.35;32.33;;;14.30;99.90;;;;;;4954548;28;20046;-79
2023/08/20 00:46:37;;;;;;;26.10;23.50;;;14.20;99.90;;;;;;4965501;28;20076;-78
2023/08/20 00:49:02;;;;;;;24.05;21.67;;;14.20;99.90;;;;;;4975001;28;20034;-79
2023/08/20 00:51:28;;;;;;;25.10;22.45;;;14.20;99.90;;;;;;4954621;28;20102;-79
2023/08/20 00:53:55;;;;;;;33.58;27.17;;;14.20;99.90;;;;;;4942899;29;20103;-80
2023/08/20 00:56:21;;;;;;;23.80;21.45;;;14.10;99.90;;;;;;4970007;28;20042;-78
2023/08/20 00:58:47;;;;;;;32.17;26.70;;;14.10;99.90;;;;;;4974679;28;20105;-79
2023/08/20 01:01:13;;;;;;;24.83;22.63;;;14.10;99.90;;;;;;4961432;28;20181;-80
2023/08/20 01:03:38;;;;;;;26.05;23.42;;;14.00;99.90;;;;;;4952270;28;20391;-78
2023/08/20 01:06:39;;;;;;;49.30;40.45;;;14.00;99.90;;;;;;4955529;28;20234;-78
2023/08/20 01:09:39;;;;;;;28.48;25.63;;;14.10;99.90;;;;;;4940700;28;20046;-79
2023/08/20 01:12:07;;;;;;;25.08;22.70;;;14.10;99.90;;;;;;4956670;28;20092;-79
2023/08/20 01:14:32;;;;;;;21.73;19.92;;;14.00;99.90;;;;;;4943496;28;20057;-79
2023/08/20 01:16:58;;;;;;;43.38;31.77;;;14.00;99.90;;;;;;4959145;28;20043;-78
2023/08/20 01:19:24;;;;;;;28.02;25.17;;;14.00;99.90;;;;;;4959422;28;20046;-79
2023/08/20 01:21:58;;;;;;;24.50;22.17;;;14.00;99.90;;;;;;4974339;28;20508;-78
2023/08/20 01:24:29;;;;;;;29.08;24.73;;;14.00;99.90;;;;;;4948066;28;20059;-79
2023/08/20 01:27:40;;;;;;;35.10;30.10;;;13.90;99.90;;;;;;4962161;28;20085;-80
2023/08/20 01:30:08;;;;;;;23.88;21.73;;;13.80;99.90;;;;;;4966655;28;20043;-79
2023/08/20 01:32:35;;;;;;;32.33;29.08;;;13.80;99.90;;;;;;4943498;28;20502;-78
2023/08/20 01:35:00;;;;;;;25.33;22.90;;;13.80;99.90;;;;;;4959226;28;20073;-78
2023/08/20 01:37:26;;;;;;;37.30;33.25;;;13.80;99.90;;;;;;4958646;28;20119;-80
2023/08/20 01:39:52;;;;;;;42.15;37.65;;;13.80;99.90;;;;;;4967056;28;20043;-79
2023/08/20 01:42:19;;;;;;;38.67;34.50;;;13.90;99.90;;;;;;4941515;28;20045;-79
2023/08/20 01:44:44;;;;;;;28.52;25.73;;;13.90;99.90;;;;;;4959427;28;20043;-79
2023/08/20 01:47:10;;;;;;;28.23;25.52;;;14.00;99.90;;;;;;4958053;28;20422;-78
2023/08/20 01:49:36;;;;;;;28.80;26.15;;;14.00;99.90;;;;;;4959794;28;20394;-79
2023/08/20 01:52:02;;;;;;;34.13;26.27;;;13.90;99.90;;;;;;4960688;28;20057;-78
2023/08/20 01:54:28;;;;;;;29.23;26.35;;;13.90;99.90;;;;;;4978344;23;20039;-82
2023/08/20 01:56:54;;;;;;;30.60;27.42;;;13.90;99.90;;;;;;5010742;28;20042;-81
2023/08/20 01:59:23;;;;;;;30.13;26.95;;;13.90;99.90;;;;;;4978089;28;20042;-82
2023/08/20 02:01:49;;;;;;;29.60;26.48;;;13.80;99.90;;;;;;4957244;28;20031;-82
2023/08/20 02:04:14;;;;;;;23.70;21.67;;;13.80;99.90;;;;;;4959360;28;20034;-82
2023/08/20 02:06:40;;;;;;;28.75;25.75;;;13.80;99.90;;;;;;4958451;28;20034;-82
2023/08/20 02:09:05;;;;;;;28.38;25.88;;;13.80;99.90;;;;;;4975080;28;20401;-82
2023/08/20 02:11:35;;;;;;;27.02;24.42;;;13.80;99.90;;;;;;4944108;29;20043;-82
2023/08/20 02:14:01;;;;;;;36.47;32.70;;;13.80;99.90;;;;;;4953943;28;20035;-82
2023/08/20 02:16:27;;;;;;;30.35;27.63;;;13.80;99.90;;;;;;4969347;28;20038;-82
2023/08/20 02:18:52;;;;;;;42.22;37.00;;;13.80;99.90;;;;;;4958384;28;20039;-82
2023/08/20 02:21:18;;;;;;;41.50;37.28;;;13.70;99.90;;;;;;4963516;28;20050;-82
2023/08/20 02:23:44;;;;;;;30.65;27.90;;;13.80;99.90;;;;;;4936142;29;20070;-82
2023/08/20 02:26:09;;;;;;;29.83;26.75;;;13.90;99.90;;;;;;4939092;29;20097;-82
2023/08/20 02:28:35;;;;;;;26.00;23.45;;;13.90;99.90;;;;;;4956532;28;20039;-81
2023/08/20 02:31:04;;;;;;;34.08;30.50;;;13.90;99.90;;;;;;4952393;28;20125;-82
2023/08/20 02:33:30;;;;;;;25.02;22.52;;;13.90;99.90;;;;;;4941230;29;20043;-82
2023/08/20 02:36:00;;;;;;;24.95;22.38;;;13.90;99.90;;;;;;4938787;29;20043;-82
2023/08/20 02:38:25;;;;;;;25.30;22.77;;;13.90;99.90;;;;;;4938960;29;20118;-82
2023/08/20 02:40:51;;;;;;;35.70;32.30;;;13.80;99.90;;;;;;4950359;29;20075;-81
2023/08/20 02:43:17;;;;;;;43.63;35.35;;;13.80;99.90;;;;;;4927246;29;20047;-82
2023/08/20 02:45:43;;;;;;;32.90;29.65;;;13.80;99.90;;;;;;4956958;28;20051;-82
2023/08/20 02:48:09;;;;;;;43.03;38.35;;;13.80;99.90;;;;;;4974146;28;20042;-82
2023/08/20 02:50:35;;;;;;;41.78;37.50;;;13.80;99.90;;;;;;4968845;28;20082;-82
2023/08/20 02:53:00;;;;;;;40.15;35.95;;;13.80;99.90;;;;;;4945137;29;20071;-82
2023/08/20 02:55:26;;;;;;;33.90;30.83;;;13.80;99.90;;;;;;4954551;28;20045;-82
2023/08/20 02:57:51;;;;;;;34.58;31.05;;;13.80;99.90;;;;;;4973630;28;20461;-82
2023/08/20 03:00:17;;;;;;;38.35;34.42;;;13.90;99.90;;;;;;4954902;28;20035;-82
2023/08/20 03:02:42;;;;;;;44.47;39.22;;;13.90;99.90;;;;;;4940823;28;20074;-81
2023/08/20 03:05:09;;;;;;;41.63;37.55;;;13.90;99.90;;;;;;4952816;28;20062;-81
2023/08/20 03:07:35;;;;;;;40.58;36.28;;;14.00;99.90;;;;;;4957771;28;20519;-81
2023/08/20 03:10:01;;;;;;;41.78;37.35;;;14.00;99.90;;;;;;4972178;28;20074;-81
2023/08/20 03:12:26;;;;;;;58.70;44.60;;;14.00;99.90;;;;;;4938716;29;20097;-82
2023/08/20 03:14:52;;;;;;;51.53;41.85;;;14.00;99.90;;;;;;4953799;28;20035;-81
2023/08/20 03:17:17;;;;;;;80.13;50.55;;;14.00;99.90;;;;;;4964672;28;20039;-82
2023/08/20 03:19:57;;;;;;;42.22;38.08;;;14.00;99.90;;;;;;4957712;28;20073;-82
2023/08/20 03:22:23;;;;;;;68.15;48.38;;;14.00;99.90;;;;;;4958017;28;20043;-82
2023/08/20 03:24:49;;;;;;;46.88;41.80;;;14.00;99.90;;;;;;4938711;29;20050;-82
2023/08/20 03:27:16;;;;;;;48.95;43.80;;;14.00;99.90;;;;;;4954538;29;20043;-82
2023/08/20 03:29:41;;;;;;;50.22;45.13;;;14.00;99.90;;;;;;4940502;28;20051;-82
2023/08/20 03:32:07;;;;;;;53.92;42.70;;;14.10;99.90;;;;;;4947341;28;20046;-82
2023/08/20 03:34:32;;;;;;;53.35;48.28;;;14.00;99.90;;;;;;4930098;29;20054;-81
2023/08/20 03:36:58;;;;;;;55.35;48.88;;;14.00;99.90;;;;;;4938891;29;20043;-81
2023/08/20 03:39:24;;;;;;;53.10;46.00;;;14.00;99.90;;;;;;4938569;29;20031;-82
2023/08/20 03:41:50;;;;;;;45.78;41.53;;;14.00;99.90;;;;;;4935052;29;20122;-82
2023/08/20 03:44:16;;;;;;;46.25;41.90;;;14.00;99.90;;;;;;4937719;29;21189;-82
2023/08/20 03:46:41;;;;;;;47.35;42.60;;;14.00;99.90;;;;;;4972586;28;20046;-83
2023/08/20 03:49:07;;;;;;;38.28;34.90;;;14.00;99.90;;;;;;4957694;28;20078;-83
2023/08/20 03:51:32;;;;;;;41.17;37.28;;;14.00;99.90;;;;;;4943992;29;20047;-81
2023/08/20 03:53:58;;;;;;;45.10;40.45;;;14.00;99.90;;;;;;4953560;28;20067;-82
2023/08/20 03:56:24;;;;;;;36.92;33.78;;;13.90;99.90;;;;;;4953869;28;20053;-81
2023/08/20 03:58:50;;;;;;;41.45;37.47;;;13.90;99.90;;;;;;4948383;28;20100;-81
2023/08/20 04:01:16;;;;;;;59.35;46.78;;;13.90;99.90;;;;;;4945049;28;20039;-82
2023/08/20 04:03:41;;;;;;;48.00;41.80;;;13.80;99.90;;;;;;4938343;29;20051;-83
2023/08/20 04:06:07;;;;;;;39.63;36.05;;;13.80;99.90;;;;;;4938275;29;20107;-82
2023/08/20 04:08:32;;;;;;;51.30;42.45;;;13.80;99.90;;;;;;4935978;28;20095;-82
2023/08/20 04:10:58;;;;;;;40.40;36.50;;;13.70;99.90;;;;;;4953781;28;20034;-82
2023/08/20 04:13:24;;;;;;;40.00;35.88;;;13.70;99.90;;;;;;4941188;28;20046;-82
2023/08/20 04:15:51;;;;;;;35.22;32.03;;;13.70;99.90;;;;;;4938042;29;20036;-81
2023/08/20 04:18:17;;;;;;;52.80;41.53;;;13.60;99.90;;;;;;4937998;29;20035;-82
2023/08/20 04:20:42;;;;;;;44.63;36.25;;;13.60;99.90;;;;;;4948756;29;20425;-82
2023/08/20 04:23:08;;;;;;;53.28;47.22;;;13.60;99.90;;;;;;4937462;28;20035;-83
2023/08/20 04:25:35;;;;;;;47.25;41.63;;;13.50;99.90;;;;;;4955401;28;20035;-82
2023/08/20 04:28:00;;;;;;;49.95;44.67;;;13.50;99.90;;;;;;4972838;28;20038;-82
2023/08/20 04:30:26;;;;;;;54.10;48.17;;;13.60;99.90;;;;;;4939340;28;20436;-81
2023/08/20 04:32:51;;;;;;;108.30;66.55;;;13.60;99.90;;;;;;4953524;29;20050;-81
2023/08/20 04:35:17;;;;;;;48.75;43.90;;;13.70;99.90;;;;;;4944726;28;20034;-82
2023/08/20 04:37:43;;;;;;;76.78;54.10;;;13.70;99.90;;;;;;4973061;28;20441;-82
2023/08/20 04:40:09;;;;;;;45.58;41.30;;;13.80;99.90;;;;;;4971029;28;20094;-82
2023/08/20 04:42:34;;;;;;;62.42;47.92;;;13.80;99.90;;;;;;4937390;29;20039;-82
2023/08/20 04:45:00;;;;;;;52.08;46.67;;;13.80;99.90;;;;;;4966408;28;20360;-82
2023/08/20 04:47:25;;;;;;;44.92;40.70;;;13.80;99.90;;;;;;4956790;28;20077;-82
2023/08/20 04:49:51;;;;;;;65.90;50.50;;;13.80;99.90;;;;;;4940555;28;20042;-82
2023/08/20 04:52:17;;;;;;;39.15;35.63;;;13.80;99.90;;;;;;4953536;28;20058;-83
2023/08/20 04:54:42;;;;;;;46.17;41.25;;;13.80;99.90;;;;;;4937412;29;20039;-81
2023/08/20 04:57:08;;;;;;;35.88;32.88;;;13.80;99.90;;;;;;4953223;29;20047;-81
2023/08/20 04:59:33;;;;;;;110.45;54.92;;;13.80;99.90;;;;;;4952285;29;20035;-82
2023/08/20 05:01:59;;;;;;;81.57;52.20;;;13.80;99.90;;;;;;4959909;28;20035;-83
2023/08/20 05:04:24;;;;;;;92.20;55.45;;;13.80;99.90;;;;;;4946090;28;20133;-82
2023/08/20 05:06:50;;;;;;;47.75;42.70;;;13.80;99.90;;;;;;4972463;28;20039;-82
2023/08/20 05:09:16;;;;;;;40.70;36.75;;;13.80;99.90;;;;;;4972142;28;20039;-82
2023/08/20 05:11:42;;;;;;;36.85;33.38;;;13.80;99.90;;;;;;4948410;28;20084;-82
2023/08/20 05:14:07;;;;;;;48.50;41.85;;;13.80;99.90;;;;;;4951547;28;20067;-82
2023/08/20 05:16:33;;;;;;;37.10;33.75;;;13.80;99.90;;;;;;4961546;28;20125;-82
2023/08/20 05:18:58;;;;;;;34.40;31.40;;;13.90;99.90;;;;;;4955923;28;20465;-83
2023/08/20 05:21:24;;;;;;;53.33;44.13;;;13.90;99.90;;;;;;4941330;29;20130;-82
2023/08/20 05:23:50;;;;;;;56.70;40.58;;;13.90;99.90;;;;;;4952287;28;20043;-82
2023/08/20 05:26:15;;;;;;;96.68;51.17;;;13.90;99.90;;;;;;4951301;28;20126;-82
2023/08/20 05:28:41;;;;;;;43.10;38.17;;;14.00;99.90;;;;;;4964369;28;20050;-82
2023/08/20 05:31:07;;;;;;;52.55;38.42;;;14.00;99.90;;;;;;4959983;28;20035;-82
2023/08/20 05:33:32;;;;;;;67.82;42.15;;;14.10;99.90;;;;;;4951982;28;20035;-82
2023/08/20 05:35:59;;;;;;;36.15;32.65;;;14.10;99.90;;;;;;4952092;29;20078;-81
2023/08/20 05:38:25;;;;;;;46.80;38.13;;;14.10;99.90;;;;;;4948492;28;20083;-82
2023/08/20 05:40:51;;;;;;;36.83;33.20;;;14.20;99.90;;;;;;4945181;28;20070;-82
2023/08/20 05:43:17;;;;;;;32.40;29.48;;;14.20;99.90;;;;;;4956145;28;20529;-82
2023/08/20 05:45:42;;;;;;;37.40;33.35;;;14.30;99.90;;;;;;4936563;29;20049;-82
2023/08/20 05:48:08;;;;;;;39.30;34.13;;;14.30;99.90;;;;;;4935912;29;20548;-82
2023/08/20 05:50:33;;;;;;;31.58;28.67;;;14.40;99.90;;;;;;4948641;29;20549;-82
2023/08/20 05:53:01;;;;;;;32.80;29.70;;;14.50;99.90;;;;;;4941462;29;20047;-82
2023/08/20 05:55:26;;;;;;;30.95;27.85;;;14.50;99.90;;;;;;4952038;28;20066;-82
2023/08/20 05:57:52;;;;;;;39.30;35.17;;;14.60;99.90;;;;;;4936930;29;20485;-82
2023/08/20 06:00:18;;;;;;;34.38;30.63;;;14.70;99.90;;;;;;4939151;29;20039;-82
2023/08/20 06:02:44;;;;;;;32.83;29.30;;;14.70;99.90;;;;;;4944457;28;20106;-82
2023/08/20 06:05:10;;;;;;;32.28;28.45;;;14.80;99.90;;;;;;4947208;28;20035;-82
2023/08/20 06:07:35;;;;;;;33.88;29.45;;;14.90;99.90;;;;;;4953763;29;20039;-82
2023/08/20 06:10:01;;;;;;;29.35;26.33;;;15.00;99.90;;;;;;4954836;28;20042;-82
2023/08/20 06:12:27;;;;;;;29.65;26.50;;;15.00;99.90;;;;;;4971647;28;20066;-82
2023/08/20 06:14:52;;;;;;;27.00;24.02;;;15.10;99.90;;;;;;4939737;29;20332;-85
2023/08/20 06:17:18;;;;;;;31.88;24.33;;;15.20;99.90;;;;;;4938017;29;20122;-82
2023/08/20 06:19:44;;;;;;;27.67;24.58;;;15.30;99.90;;;;;;4937575;29;20162;-82
2023/08/20 06:22:10;;;;;;;25.58;19.95;;;15.40;99.90;;;;;;4960870;28;20035;-82
2023/08/20 06:24:35;;;;;;;31.60;25.63;;;15.50;99.90;;;;;;4956368;28;20042;-81
2023/08/20 06:27:01;;;;;;;25.83;23.05;;;15.50;99.90;;;;;;4936294;29;20049;-81
2023/08/20 06:29:27;;;;;;;33.42;26.27;;;15.50;99.90;;;;;;4953701;28;20043;-82
2023/08/20 06:31:52;;;;;;;33.58;25.40;;;15.70;99.90;;;;;;4961844;28;20421;-81
2023/08/20 06:34:18;;;;;;;23.35;20.90;;;15.80;99.90;;;;;;4965891;28;20035;-81
2023/08/20 06:36:44;;;;;;;32.03;22.80;;;15.80;99.90;;;;;;4949500;28;20114;-82
2023/08/20 06:39:10;;;;;;;30.10;22.70;;;15.90;99.90;;;;;;4947949;29;20122;-82
2023/08/20 06:41:35;;;;;;;24.60;19.73;;;16.00;99.90;;;;;;4946552;28;20042;-82
2023/08/20 06:44:02;;;;;;;23.73;19.23;;;16.10;99.90;;;;;;4957879;28;20043;-82
2023/08/20 06:46:28;;;;;;;24.70;18.67;;;16.20;99.90;;;;;;4973818;28;20038;-81
2023/08/20 06:48:54;;;;;;;24.83;15.05;;;16.30;99.90;;;;;;4973929;28;20041;-82
2023/08/20 06:51:21;;;;;;;27.23;18.85;;;16.40;99.90;;;;;;4974045;28;20070;-82
2023/08/20 06:53:47;;;;;;;21.63;16.88;;;16.50;99.90;;;;;;4966044;28;20389;-82
2023/08/20 06:56:12;;;;;;;26.55;17.80;;;16.50;99.90;;;;;;4957615;28;20047;-80
2023/08/20 06:58:40;;;;;;;22.17;17.50;;;16.60;99.90;;;;;;4967937;28;20035;-79
2023/08/20 07:01:08;;;;;;;20.77;16.70;;;16.70;99.90;;;;;;4951664;28;20090;-80
2023/08/20 07:03:42;;;;;;;24.63;18.75;;;16.80;99.90;;;;;;4970892;28;20305;-80
2023/08/20 07:06:09;;;;;;;23.25;18.30;;;16.80;99.90;;;;;;4982066;28;20516;-80
2023/08/20 07:08:36;;;;;;;26.10;19.10;;;16.80;99.90;;;;;;4988123;28;20050;-79
2023/08/20 07:11:02;;;;;;;20.23;15.70;;;16.80;99.90;;;;;;4973325;28;20057;-80
2023/08/20 07:13:28;;;;;;;18.77;13.85;;;16.90;99.90;;;;;;4973529;28;20031;-80
2023/08/20 07:15:54;;;;;;;21.90;17.50;;;16.90;99.90;;;;;;4969211;28;20046;-80
2023/08/20 07:18:20;;;;;;;28.67;19.25;;;17.00;99.90;;;;;;4953606;28;20046;-80
2023/08/20 07:20:46;;;;;;;24.73;18.23;;;17.10;99.90;;;;;;4947811;28;20065;-80
2023/08/20 07:23:11;;;;;;;26.05;18.70;;;17.10;99.90;;;;;;4973514;28;20536;-80
2023/08/20 07:25:38;;;;;;;19.80;17.45;;;17.20;99.90;;;;;;4957363;28;20035;-80
2023/08/20 07:28:08;;;;;;;22.02;16.90;;;17.30;99.90;;;;;;4966898;28;20047;-80
2023/08/20 07:30:35;;;;;;;18.95;13.70;;;17.30;99.90;;;;;;4956497;28;20067;-80
2023/08/20 07:33:01;;;;;;;21.63;15.52;;;17.40;99.90;;;;;;4973329;28;20500;-80
2023/08/20 07:35:27;;;;;;;32.35;18.92;;;17.50;99.90;;;;;;4973085;28;20034;-80
2023/08/20 07:37:53;;;;;;;21.88;14.15;;;17.50;99.90;;;;;;4956955;28;20512;-81
2023/08/20 07:40:19;;;;;;;20.77;14.10;;;17.60;99.90;;;;;;4957316;28;20097;-80
2023/08/20 07:42:44;;;;;;;22.88;13.68;;;17.70;99.90;;;;;;4964827;28;20031;-80
2023/08/20 07:45:10;;;;;;;19.33;11.27;;;17.70;99.90;;;;;;4973017;28;20464;-80
2023/08/20 07:47:37;;;;;;;20.25;13.90;;;17.80;99.90;;;;;;4972775;28;20038;-80
2023/08/20 07:50:04;;;;;;;20.13;12.82;;;17.80;99.90;;;;;;4967097;28;20047;-80
2023/08/20 07:52:30;;;;;;;18.20;12.90;;;17.90;99.90;;;;;;4970306;28;20097;-80
2023/08/20 07:54:56;;;;;;;22.27;14.10;;;18.00;99.90;;;;;;5001119;23;20050;-79
2023/08/20 07:57:23;;;;;;;19.30;11.27;;;18.00;99.90;;;;;;4956153;28;20043;-78
2023/08/20 07:59:49;;;;;;;15.25;10.25;;;18.10;99.90;;;;;;4975786;28;20415;-78
2023/08/20 08:02:15;;;;;;;17.02;9.23;;;18.20;99.90;;;;;;4967777;28;20515;-78
2023/08/20 08:04:42;;;;;;;17.85;10.88;;;18.20;99.90;;;;;;4968193;28;20038;-78
2023/08/20 08:07:08;;;;;;;18.70;9.52;;;18.30;99.90;;;;;;4960599;28;20038;-80
2023/08/20 08:09:34;;;;;;;13.63;7.55;;;18.40;99.90;;;;;;4962683;28;20415;-79
2023/08/20 08:12:00;;;;;;;18.15;7.82;;;18.40;99.90;;;;;;4963235;28;20035;-79
2023/08/20 08:14:26;;;;;;;14.07;7.15;;;18.50;99.90;;;;;;4981169;28;20035;-78
2023/08/20 08:16:53;;;;;;;16.50;7.60;;;18.60;99.90;;;;;;4955506;28;20081;-78
2023/08/20 08:19:19;;;;;;;16.90;8.05;;;18.70;99.90;;;;;;4964576;28;20097;-79
2023/08/20 08:21:46;;;;;;;13.40;7.13;;;18.80;99.90;;;;;;4954022;28;20040;-79
2023/08/20 08:24:13;;;;;;;16.30;7.03;;;18.90;99.90;;;;;;4957725;28;20050;-81
2023/08/20 08:26:40;;;;;;;20.85;10.25;;;19.10;99.90;;;;;;4951660;28;20046;-79
2023/08/20 08:29:06;;;;;;;15.10;9.38;;;19.20;99.90;;;;;;4969920;28;20046;-80
2023/08/20 08:31:33;;;;;;;13.50;6.50;;;19.70;99.90;;;;;;4981751;28;20046;-80
2023/08/20 08:33:59;;;;;;;14.43;6.03;;;20.50;99.90;;;;;;4959880;28;20031;-79
2023/08/20 08:36:25;;;;;;;11.65;5.45;;;21.50;99.90;;;;;;4953199;28;20042;-79
2023/08/20 08:38:52;;;;;;;12.25;5.70;;;22.40;99.90;;;;;;4975968;28;20120;-79
2023/08/20 08:41:23;;;;;;;9.63;4.00;;;23.10;99.90;;;;;;4965687;28;20444;-80
2023/08/20 08:43:51;;;;;;;9.73;4.18;;;23.90;99.90;;;;;;4955319;28;20493;-80
2023/08/20 08:46:17;;;;;;;11.23;4.45;;;24.60;99.90;;;;;;4978820;28;20152;-79
2023/08/20 08:48:45;;;;;;;9.98;3.90;;;25.30;99.90;;;;;;4960125;28;20042;-79
2023/08/20 08:51:13;;;;;;;9.70;4.20;;;25.90;99.90;;;;;;4960353;28;20042;-80
2023/08/20 08:53:43;;;;;;;9.15;3.60;;;26.40;99.90;;;;;;4959012;28;20034;-80
2023/08/20 08:56:10;;;;;;;8.68;4.60;;;26.90;99.90;;;;;;4956579;28;20417;-80
2023/08/20 08:58:36;;;;;;;9.95;3.45;;;27.30;99.90;;;;;;4955474;28;20084;-79
2023/08/20 09:01:03;;;;;;;8.30;3.10;;;27.60;99.90;;;;;;4978077;28;20053;-80
2023/08/20 09:03:29;;;;;;;8.00;3.10;;;28.00;99.90;;;;;;4957932;28;20034;-80
2023/08/20 09:06:03;;;;;;;8.13;2.75;;;28.20;99.90;;;;;;4957802;28;20037;-79
2023/08/20 09:08:42;;;;;;;6.47;2.28;;;28.40;99.90;;;;;;4960213;28;20034;-79
2023/08/20 09:11:08;;;;;;;10.15;2.83;;;28.60;99.90;;;;;;4961533;28;20046;-79
2023/08/20 09:13:36;;;;;;;6.30;2.80;;;28.90;99.90;;;;;;4974174;28;20070;-79
2023/08/20 09:16:18;;;;;;;8.13;2.55;;;29.00;99.90;;;;;;4951558;28;20070;-80
2023/08/20 09:18:50;;;;;;;9.60;2.60;;;29.20;99.90;;;;;;4987608;28;20082;-80
2023/08/20 09:21:16;;;;;;;8.75;2.72;;;29.30;99.90;;;;;;4954549;28;20038;-80
2023/08/20 09:23:46;;;;;;;5.78;2.53;;;29.30;99.90;;;;;;4970205;28;20041;-80
2023/08/20 09:26:15;;;;;;;7.22;2.70;;;29.50;99.90;;;;;;5012697;28;20054;-79
2023/08/20 09:28:47;;;;;;;9.00;3.00;;;29.50;99.90;;;;;;4975717;28;20043;-80
2023/08/20 09:31:14;;;;;;;9.48;2.97;;;29.50;99.90;;;;;;4956129;28;20417;-80
2023/08/20 09:33:55;;;;;;;6.43;2.40;;;29.40;99.90;;;;;;4961880;28;20382;-79
2023/08/20 09:36:31;;;;;;;7.65;2.80;;;29.50;99.00;;;;;;4977775;28;20049;-80
2023/08/20 09:39:00;;;;;;;6.00;2.72;;;29.40;99.90;;;;;;4978522;28;20125;-79
2023/08/20 09:41:38;;;;;;;7.30;2.78;;;29.30;99.90;;;;;;4973132;28;20046;-79
2023/08/20 09:44:09;;;;;;;7.63;2.47;;;29.20;96.40;;;;;;4969438;28;20034;-79
2023/08/20 09:46:36;;;;;;;7.38;2.55;;;29.20;99.90;;;;;;4991691;28;20038;-80
2023/08/20 09:49:07;;;;;;;6.75;2.95;;;29.30;99.90;;;;;;4971179;28;20050;-80
2023/08/20 09:51:35;;;;;;;10.32;2.65;;;29.40;99.90;;;;;;4962638;28;20050;-80
2023/08/20 09:54:19;;;;;;;7.65;2.83;;;29.20;99.10;;;;;;4966859;28;20058;-80
2023/08/20 09:56:51;;;;;;;5.90;2.53;;;29.10;99.90;;;;;;4971369;28;20038;-80
2023/08/20 09:59:17;;;;;;;6.70;3.00;;;29.10;99.90;;;;;;4966117;28;20381;-80
2023/08/20 10:01:47;;;;;;;7.60;2.67;;;29.30;99.90;;;;;;4966227;28;20105;-79
2023/08/20 10:04:15;;;;;;;7.72;2.50;;;29.30;99.90;;;;;;4960303;28;20500;-80
2023/08/20 10:06:46;;;;;;;7.45;2.25;;;29.00;99.90;;;;;;4992493;28;20039;-79
2023/08/20 10:09:18;;;;;;;6.80;2.20;;;29.00;99.90;;;;;;4976224;28;20061;-79
2023/08/20 10:11:44;;;;;;;8.40;2.35;;;29.20;99.90;;;;;;4964587;28;20073;-79
2023/08/20 10:14:22;;;;;;;7.05;1.98;;;29.20;95.00;;;;;;4968290;28;20042;-79
2023/08/20 10:16:57;;;;;;;7.97;2.10;;;28.80;94.90;;;;;;4964345;28;20046;-78
2023/08/20 10:19:50;;;;;;;5.95;2.25;;;28.20;99.90;;;;;;4955867;28;20046;-78
2023/08/20 10:22:31;;;;;;;5.43;1.45;;;28.30;99.90;;;;;;4958705;28;20401;-80
2023/08/20 10:25:02;;;;;;;7.32;1.75;;;28.50;99.90;;;;;;4979625;28;20052;-81
2023/08/20 10:27:34;;;;;;;4.88;1.70;;;28.70;99.90;;;;;;4977091;28;20046;-80
2023/08/20 10:30:21;;;;;;;5.65;1.77;;;28.90;99.90;;;;;;4961302;28;20050;-80
2023/08/20 10:33:01;;;;;;;4.25;1.38;;;29.10;93.00;;;;;;4967224;28;20041;-80
2023/08/20 10:35:50;;;;;;;5.47;1.90;;;29.20;99.80;;;;;;4993006;28;20050;-81
2023/08/20 10:38:20;;;;;;;6.25;1.60;;;29.40;98.10;;;;;;4978511;28;20106;-81
2023/08/20 10:41:01;;;;;;;7.05;1.73;;;29.40;99.90;;;;;;4974168;28;20054;-80
2023/08/20 10:43:38;;;;;;;6.03;1.48;;;29.50;94.90;;;;;;4968339;28;20535;-80
2023/08/20 10:46:08;;;;;;;4.00;1.30;;;29.60;81.10;;;;;;4982896;28;20042;-79
2023/08/20 10:48:39;;;;;;;5.40;1.42;;;29.60;97.40;;;;;;4984231;28;20039;-80
2023/08/20 10:51:12;;;;;;;6.47;1.83;;;29.60;93.00;;;;;;4966316;28;20073;-80
2023/08/20 10:53:41;;;;;;;5.05;1.50;;;29.60;87.50;;;;;;4974173;28;20479;-80
2023/08/20 10:56:10;;;;;;;6.90;1.90;;;29.60;89.20;;;;;;4967798;28;20042;-80
2023/08/20 10:58:43;;;;;;;6.40;1.60;;;29.70;87.10;;;;;;4967812;28;20512;-80
2023/08/20 11:01:24;;;;;;;5.55;1.45;;;29.70;92.40;;;;;;4964728;28;20128;-80
2023/08/20 11:03:51;;;;;;;3.80;1.35;;;29.70;90.00;;;;;;4977596;28;20042;-80
2023/08/20 11:06:18;;;;;;;4.90;1.20;;;29.70;86.80;;;;;;4992632;28;20041;-80
2023/08/20 11:08:50;;;;;;;5.57;1.40;;;29.90;92.50;;;;;;4994626;28;20038;-80
2023/08/20 11:11:21;;;;;;;5.20;1.15;;;30.00;84.10;;;;;;4969479;28;20039;-79
2023/08/20 11:13:52;;;;;;;6.50;1.23;;;30.20;79.40;;;;;;4973162;28;20034;-81
2023/08/20 11:16:31;;;;;;;6.03;1.50;;;30.30;78.10;;;;;;4975525;28;20130;-81
2023/08/20 11:19:02;;;;;;;6.85;1.50;;;30.50;81.30;;;;;;4961549;28;20038;-80
2023/08/20 11:21:32;;;;;;;5.57;1.38;;;30.70;77.80;;;;;;4960742;28;20127;-81
2023/08/20 11:24:06;;;;;;;5.13;1.40;;;30.80;75.20;;;;;;4966129;28;20065;-80
2023/08/20 11:26:44;;;;;;;5.35;1.67;;;30.80;74.50;;;;;;4963453;28;20108;-81
2023/08/20 11:29:12;;;;;;;4.57;1.60;;;31.00;76.20;;;;;;4959692;28;20184;-80
2023/08/20 11:31:42;;;;;;;4.05;1.20;;;31.10;73.30;;;;;;4969018;28;20046;-81
2023/08/20 11:34:11;;;;;;;5.93;1.50;;;31.30;70.30;;;;;;4953210;28;20031;-80
2023/08/20 11:36:40;;;;;;;4.95;1.40;;;31.30;69.90;;;;;;4961374;28;20102;-80
2023/08/20 11:39:07;;;;;;;5.05;1.25;;;31.30;67.30;;;;;;4959856;28;20078;-81
2023/08/20 11:41:40;;;;;;;5.30;1.58;;;31.30;70.70;;;;;;4958583;28;20562;-80
2023/08/20 11:44:26;;;;;;;4.45;1.38;;;31.20;69.90;;;;;;4960893;28;20050;-81
2023/08/20 11:46:52;;;;;;;7.18;1.58;;;31.00;72.20;;;;;;4959244;28;20457;-81
2023/08/20 11:49:27;;;;;;;6.88;1.60;;;30.90;73.00;;;;;;4977272;28;20133;-81
2023/08/20 11:52:04;;;;;;;5.57;1.38;;;31.00;71.60;;;;;;4963403;28;20038;-81
2023/08/20 11:54:56;;;;;;;5.70;1.15;;;31.30;73.80;;;;;;4938990;28;20140;-81
2023/08/20 11:57:22;;;;;;;5.50;1.30;;;31.10;67.40;;;;;;4959144;28;20519;-81
2023/08/20 11:59:50;;;;;;;6.70;1.42;;;30.60;68.30;;;;;;4965583;28;20122;-80
2023/08/20 12:02:25;;;;;;;5.32;1.50;;;30.60;69.50;;;;;;4973716;28;20071;-81
2023/08/20 12:04:51;;;;;;;5.78;1.25;;;30.70;71.60;;;;;;4958956;28;20042;-80
2023/08/20 12:07:20;;;;;;;4.82;1.23;;;30.80;74.60;;;;;;4967250;28;20100;-80
2023/08/20 12:09:48;;;;;;;5.13;1.60;;;30.50;69.80;;;;;;4958848;28;20038;-80
2023/08/20 12:12:20;;;;;;;4.88;1.50;;;30.30;71.50;;;;;;4942309;28;20086;-80
2023/08/20 12:14:51;;;;;;;5.00;1.40;;;30.40;74.30;;;;;;4949558;28;20030;-81
2023/08/20 12:17:23;;;;;;;7.28;1.30;;;30.60;76.60;;;;;;4968864;28;20448;-83
2023/08/20 12:20:06;;;;;;;6.70;1.50;;;30.90;71.80;;;;;;4960817;28;20042;-80
2023/08/20 12:22:44;;;;;;;5.55;1.60;;;31.00;69.60;;;;;;4959173;28;20030;-80
2023/08/20 12:25:10;;;;;;;6.80;1.70;;;31.20;68.60;;;;;;4961214;28;20042;-80
2023/08/20 12:27:38;;;;;;;6.88;1.45;;;31.30;70.50;;;;;;4961538;28;20042;-81
2023/08/20 12:30:13;;;;;;;6.03;1.92;;;31.10;67.30;;;;;;4961611;28;20042;-82
2023/08/20 12:32:42;;;;;;;5.50;1.45;;;30.50;67.40;;;;;;4959847;28;20081;-83
2023/08/20 12:35:20;;;;;;;8.53;2.13;;;30.20;68.80;;;;;;4957113;28;20468;-83
2023/08/20 12:37:49;;;;;;;5.63;1.40;;;30.30;69.10;;;;;;4959752;28;20030;-81
2023/08/20 12:40:17;;;;;;;5.28;1.50;;;30.20;71.00;;;;;;4961255;28;20439;-81